createdAt,value
2018-09-03T00:00:33.925Z,71.35
2018-09-03T00:03:38.848Z,71.82
2018-09-03T00:06:43.789Z,72.04
2018-09-03T00:09:48.748Z,72.30
2018-09-03T00:12:53.681Z,72.51
2018-09-03T00:15:58.604Z,71.98
2018-09-03T00:19:03.552Z,72.46
2018-09-03T00:22:08.480Z,72.01
2018-09-03T00:25:13.422Z,71.89
2018-09-03T00:28:18.346Z,72.51
2018-09-03T00:31:29.014Z,72.24
2018-09-03T00:34:39.640Z,72.31
2018-09-03T00:37:50.440Z,72.64
2018-09-03T00:41:01.210Z,71.50
2018-09-03T00:44:11.843Z,71.64
2018-09-03T00:47:16.877Z,72.20
2018-09-03T00:50:21.826Z,71.84
2018-09-03T00:53:26.835Z,72.31
2018-09-03T00:56:31.789Z,73.53
2018-09-03T00:59:36.734Z,73.52
2018-09-03T01:02:41.656Z,73.67
2018-09-03T01:05:46.576Z,73.11
2018-09-03T01:08:51.486Z,73.70
2018-09-03T01:11:56.466Z,72.90
2018-09-03T01:15:01.406Z,72.91
2018-09-03T01:18:06.322Z,73.65
2018-09-03T01:21:11.550Z,73.80
2018-09-03T01:24:16.457Z,73.72
2018-09-03T01:27:21.354Z,73.54
2018-09-03T01:30:26.324Z,72.61
2018-09-03T01:33:31.237Z,73.64
2018-09-03T01:36:36.146Z,73.57
2018-09-03T01:39:41.084Z,73.62
2018-09-03T01:42:46.013Z,73.49
2018-09-03T01:45:50.930Z,73.01
2018-09-03T01:48:55.909Z,73.66
2018-09-03T01:52:00.821Z,73.88
2018-09-03T01:55:05.782Z,74.55
2018-09-03T01:58:10.696Z,73.63
2018-09-03T02:01:15.615Z,74.13
2018-09-03T02:04:20.534Z,74.18
2018-09-03T02:07:25.449Z,74.28
2018-09-03T02:10:30.370Z,74.29
2018-09-03T02:13:35.316Z,74.25
2018-09-03T02:16:40.240Z,74.41
2018-09-03T02:19:45.165Z,73.54
2018-09-03T02:22:50.072Z,75.39
2018-09-03T02:25:54.993Z,75.36
2018-09-03T02:28:59.901Z,76.60
2018-09-03T02:32:05.053Z,76.72
2018-09-03T02:35:09.973Z,76.89
2018-09-03T02:38:14.881Z,76.37
2018-09-03T02:41:19.788Z,77.18
2018-09-03T02:44:24.689Z,77.36
2018-09-03T02:47:29.645Z,78.57
2018-09-03T02:50:34.552Z,78.23
2018-09-03T02:53:39.476Z,78.46
2018-09-03T02:56:44.401Z,79.19
2018-09-03T02:59:49.373Z,79.31
2018-09-03T03:02:55.632Z,78.47
2018-09-03T03:06:00.569Z,79.67
2018-09-03T03:09:06.936Z,78.81
2018-09-03T03:12:13.249Z,79.56
2018-09-03T03:15:18.178Z,79.76
2018-09-03T03:18:23.121Z,79.51
2018-09-03T03:21:28.129Z,79.75
2018-09-03T03:24:33.101Z,79.11
2018-09-03T03:27:38.032Z,80.26
2018-09-03T03:30:43.009Z,80.14
2018-09-03T03:33:47.956Z,80.30
2018-09-03T03:36:52.880Z,80.74
2018-09-03T03:39:57.817Z,80.64
2018-09-03T03:43:02.749Z,80.82
2018-09-03T03:46:07.653Z,80.43
2018-09-03T03:49:12.653Z,81.08
2018-09-03T03:52:17.593Z,81.39
2018-09-03T03:55:22.549Z,81.97
2018-09-03T03:58:27.507Z,81.42
2018-09-03T04:01:32.451Z,81.31
2018-09-03T04:04:37.367Z,82.11
2018-09-03T04:07:42.305Z,82.43
2018-09-03T04:10:47.212Z,81.50
2018-09-03T04:13:52.113Z,82.15
2018-09-03T04:16:57.022Z,82.13
2018-09-03T04:20:03.018Z,81.45
2018-09-03T04:23:07.998Z,81.86
2018-09-03T04:26:12.872Z,81.81
2018-09-03T04:29:17.857Z,81.18
2018-09-03T04:32:22.973Z,81.33
2018-09-03T04:35:27.900Z,81.85
2018-09-03T04:38:32.870Z,81.50
2018-09-03T04:41:38.153Z,82.48
2018-09-03T04:44:43.072Z,81.59
2018-09-03T04:47:47.981Z,81.26
2018-09-03T04:50:52.888Z,81.93
2018-09-03T04:53:57.825Z,81.60
2018-09-03T04:57:02.763Z,80.78
2018-09-03T05:00:07.721Z,80.51
2018-09-03T05:03:12.649Z,81.36
2018-09-03T05:06:17.592Z,80.33
2018-09-03T05:09:22.831Z,81.13
2018-09-03T05:12:27.769Z,80.95
2018-09-03T05:15:32.713Z,80.45
2018-09-03T05:18:37.661Z,81.04
2018-09-03T05:21:42.581Z,81.00
2018-09-03T05:24:47.513Z,81.08
2018-09-03T05:27:52.424Z,79.81
2018-09-03T05:30:57.376Z,80.32
2018-09-03T05:34:02.277Z,81.03
2018-09-03T05:37:07.196Z,80.67
2018-09-03T05:40:12.137Z,80.58
2018-09-03T05:43:17.179Z,79.51
2018-09-03T05:46:22.018Z,80.33
2018-09-03T05:49:26.946Z,80.22
2018-09-03T05:52:31.878Z,80.25
2018-09-03T05:55:36.845Z,80.31
2018-09-03T05:58:41.842Z,80.30
2018-09-03T06:01:46.818Z,79.40
2018-09-03T06:04:51.808Z,79.29
2018-09-03T06:07:56.729Z,79.59
2018-09-03T06:11:01.680Z,79.11
2018-09-03T06:14:06.602Z,79.75
2018-09-03T06:17:11.682Z,79.67
2018-09-03T06:20:16.614Z,79.09
2018-09-03T06:23:21.609Z,79.71
2018-09-03T06:26:26.548Z,78.43
2018-09-03T06:29:31.497Z,78.51
2018-09-03T06:32:36.409Z,78.33
2018-09-03T06:35:41.336Z,78.30
2018-09-03T06:38:46.273Z,77.50
2018-09-03T06:41:51.218Z,77.41
2018-09-03T06:44:56.201Z,77.24
2018-09-03T06:48:01.138Z,76.35
2018-09-03T06:51:06.110Z,74.87
2018-09-03T06:54:11.081Z,75.72
2018-09-03T06:57:16.052Z,75.00
2018-09-03T07:00:21.018Z,74.06
2018-09-03T07:03:26.045Z,75.30
2018-09-03T07:06:30.993Z,74.77
2018-09-03T07:09:35.947Z,74.66
2018-09-03T07:12:41.325Z,73.54
2018-09-03T07:15:46.272Z,74.14
2018-09-03T07:18:51.305Z,73.96
2018-09-03T07:21:56.120Z,73.46
2018-09-03T07:25:01.069Z,72.63
2018-09-03T07:28:05.972Z,72.73
2018-09-03T07:31:10.874Z,72.77
2018-09-03T07:34:15.785Z,73.26
2018-09-03T07:37:20.714Z,71.31
2018-09-03T07:40:25.626Z,70.46
2018-09-03T07:43:30.556Z,70.67
2018-09-03T07:46:35.475Z,70.97
2018-09-03T07:49:40.400Z,69.20
2018-09-03T07:52:45.318Z,70.66
2018-09-03T07:55:50.261Z,69.41
2018-09-03T07:58:55.165Z,68.17
2018-09-03T08:02:00.129Z,67.98
2018-09-03T08:05:05.643Z,68.20
2018-09-03T08:08:10.572Z,68.22
2018-09-03T08:11:15.528Z,66.79
2018-09-03T08:14:20.473Z,67.13
2018-09-03T08:17:25.577Z,67.47
2018-09-03T08:20:30.745Z,64.91
2018-09-03T08:23:35.686Z,65.96
2018-09-03T08:26:40.660Z,66.18
2018-09-03T08:29:45.733Z,65.88
2018-09-03T08:32:51.467Z,65.49
2018-09-03T08:35:56.937Z,66.97
2018-09-03T08:39:01.928Z,64.50
2018-09-03T08:42:06.970Z,62.78
2018-09-03T08:45:11.937Z,62.27
2018-09-03T08:48:16.940Z,63.67
2018-09-03T08:51:21.893Z,63.91
2018-09-03T08:54:26.873Z,63.25
2018-09-03T08:57:31.857Z,64.64
2018-09-03T09:00:36.804Z,66.41
2018-09-03T09:03:43.015Z,65.75
2018-09-03T09:06:48.124Z,64.39
2018-09-03T09:09:53.191Z,62.80
2018-09-03T09:12:58.140Z,62.49
2018-09-03T09:16:03.080Z,62.47
2018-09-03T09:19:08.022Z,63.22
2018-09-03T09:22:12.942Z,62.54
2018-09-03T09:25:17.873Z,59.49
2018-09-03T09:28:22.792Z,60.67
2018-09-03T09:31:27.737Z,58.61
2018-09-03T09:34:32.667Z,57.84
2018-09-03T09:37:37.605Z,57.62
2018-09-03T09:40:42.541Z,56.60
2018-09-03T09:43:47.509Z,55.80
2018-09-03T09:46:52.452Z,57.75
2018-09-03T09:49:57.473Z,57.42
2018-09-03T09:53:02.404Z,58.59
2018-09-03T09:56:07.419Z,58.88
2018-09-03T09:59:12.378Z,57.78
2018-09-03T10:02:17.361Z,57.55
2018-09-03T10:05:22.318Z,57.04
2018-09-03T10:08:27.268Z,57.18
2018-09-03T10:11:32.281Z,56.81
2018-09-03T10:14:37.213Z,57.42
2018-09-03T10:17:42.190Z,57.62
2018-09-03T10:20:47.193Z,58.91
2018-09-03T10:23:52.278Z,58.72
2018-09-03T10:26:57.249Z,58.30
2018-09-03T10:30:02.241Z,58.15
2018-09-03T10:33:07.216Z,58.07
2018-09-03T10:36:12.184Z,59.19
2018-09-03T10:39:17.696Z,59.89
2018-09-03T10:42:24.523Z,58.59
2018-09-03T10:45:29.481Z,59.90
2018-09-03T10:48:34.461Z,58.10
2018-09-03T10:51:39.542Z,57.40
2018-09-03T10:54:44.764Z,56.05
2018-09-03T10:57:49.788Z,54.68
2018-09-03T11:00:54.736Z,55.53
2018-09-03T11:03:59.752Z,55.11
2018-09-03T11:07:04.831Z,55.32
2018-09-03T11:10:09.784Z,55.61
2018-09-03T11:13:14.784Z,55.52
2018-09-03T11:16:19.718Z,54.57
2018-09-03T11:19:27.006Z,53.32
2018-09-03T11:22:32.009Z,53.36
2018-09-03T11:25:36.946Z,51.35
2018-09-03T11:28:41.934Z,50.49
2018-09-03T11:31:46.877Z,51.57
2018-09-03T11:34:51.840Z,51.34
2018-09-03T11:37:56.804Z,51.36
2018-09-03T11:41:01.781Z,49.04
2018-09-03T11:44:07.179Z,49.20
2018-09-03T11:47:12.174Z,50.49
2018-09-03T11:50:17.769Z,51.94
2018-09-03T11:53:22.725Z,52.64
2018-09-03T11:56:27.678Z,53.26
2018-09-03T11:59:32.636Z,52.90
2018-09-03T12:02:37.609Z,53.38
2018-09-03T12:05:42.593Z,53.58
2018-09-03T12:08:47.579Z,50.63
2018-09-03T12:11:52.550Z,52.57
2018-09-03T12:15:00.262Z,50.89
2018-09-03T12:18:05.290Z,49.57
2018-09-03T12:21:11.334Z,50.58
2018-09-03T12:24:16.209Z,50.66
2018-09-03T12:27:21.587Z,50.74
2018-09-03T12:30:26.554Z,52.61
2018-09-03T12:33:31.927Z,52.71
2018-09-03T12:36:36.909Z,52.36
2018-09-03T12:39:42.125Z,51.55
2018-09-03T12:42:47.414Z,51.85
2018-09-03T12:45:58.501Z,50.97
2018-09-03T12:49:04.031Z,50.34
2018-09-03T12:52:09.390Z,49.61
2018-09-03T12:55:14.956Z,51.83
2018-09-03T12:58:20.022Z,50.40
2018-09-03T13:01:25.022Z,50.81
2018-09-03T13:04:30.176Z,52.36
2018-09-03T13:07:35.085Z,52.34
2018-09-03T13:10:40.154Z,53.82
2018-09-03T13:13:45.100Z,52.99
2018-09-03T13:16:50.038Z,52.62
2018-09-03T13:19:54.988Z,52.29
2018-09-03T13:22:59.988Z,52.35
2018-09-03T13:26:04.995Z,51.78
2018-09-03T13:29:09.934Z,52.14
2018-09-03T13:32:15.118Z,50.84
2018-09-03T13:35:20.367Z,51.21
2018-09-03T13:38:25.356Z,51.02
2018-09-03T13:41:30.361Z,50.99
2018-09-03T13:44:35.372Z,50.31
2018-09-03T13:47:40.406Z,50.58
2018-09-03T13:50:45.875Z,51.05
2018-09-03T13:53:50.856Z,50.80
2018-09-03T13:56:56.142Z,51.41
2018-09-03T14:00:01.161Z,50.14
2018-09-03T14:03:06.649Z,50.17
2018-09-03T14:06:11.682Z,50.48
2018-09-03T14:09:16.959Z,49.99
2018-09-03T14:12:22.197Z,49.33
2018-09-03T14:15:27.233Z,49.03
2018-09-03T14:18:32.342Z,48.73
2018-09-03T14:21:37.403Z,49.94
2018-09-03T14:24:42.359Z,49.97
2018-09-03T14:27:47.377Z,49.60
2018-09-03T14:30:52.337Z,49.88
2018-09-03T14:33:58.256Z,49.41
2018-09-03T14:37:03.389Z,50.05
2018-09-03T14:40:08.340Z,51.16
2018-09-03T14:43:13.562Z,51.50
2018-09-03T14:46:18.917Z,52.05
2018-09-03T14:49:24.406Z,52.33
2018-09-03T14:52:29.386Z,51.52
2018-09-03T14:55:34.371Z,51.97
2018-09-03T14:58:39.376Z,50.93
2018-09-03T15:01:44.826Z,49.81
2018-09-03T15:04:49.879Z,50.14
2018-09-03T15:07:54.853Z,51.15
2018-09-03T15:10:59.874Z,52.64
2018-09-03T15:14:05.250Z,53.71
2018-09-03T15:17:10.244Z,54.57
2018-09-03T15:20:15.237Z,53.72
2018-09-03T15:23:20.263Z,53.24
2018-09-03T15:26:25.482Z,53.34
2018-09-03T15:29:30.453Z,54.43
2018-09-03T15:32:35.604Z,54.50
2018-09-03T15:35:40.619Z,54.98
2018-09-03T15:38:45.669Z,54.46
2018-09-03T15:41:50.652Z,53.17
2018-09-03T15:44:55.712Z,53.92
2018-09-03T15:48:00.766Z,53.67
2018-09-03T15:51:05.927Z,54.37
2018-09-03T15:54:11.147Z,54.40
2018-09-03T15:57:16.069Z,54.29
2018-09-03T16:00:21.042Z,54.66
2018-09-03T16:03:26.025Z,55.44
2018-09-03T16:06:31.025Z,55.17
2018-09-03T16:09:36.006Z,56.05
2018-09-03T16:12:41.080Z,56.26
2018-09-03T16:15:46.145Z,57.48
2018-09-03T16:18:51.151Z,56.58
2018-09-03T16:21:56.192Z,57.54
2018-09-03T16:25:01.228Z,58.23
2018-09-03T16:28:06.317Z,57.46
2018-09-03T16:31:11.291Z,57.75
2018-09-03T16:34:16.299Z,59.27
2018-09-03T16:37:21.267Z,58.56
2018-09-03T16:40:26.212Z,58.73
2018-09-03T16:43:31.227Z,58.81
2018-09-03T16:46:36.190Z,58.28
2018-09-03T16:49:41.141Z,58.13
2018-09-03T16:52:46.230Z,59.11
2018-09-03T16:55:51.225Z,58.22
2018-09-03T16:58:56.177Z,58.09
2018-09-03T17:02:01.186Z,59.08
2018-09-03T17:05:06.343Z,57.61
2018-09-03T17:08:11.453Z,58.20
2018-09-03T17:11:16.273Z,58.90
2018-09-03T17:14:21.254Z,59.94
2018-09-03T17:17:26.210Z,58.39
2018-09-03T17:20:31.249Z,58.90
2018-09-03T17:23:36.137Z,59.83
2018-09-03T17:26:41.140Z,59.21
2018-09-03T17:29:46.209Z,59.19
2018-09-03T17:32:51.224Z,60.53
2018-09-03T17:35:56.144Z,60.44
2018-09-03T17:39:01.118Z,59.83
2018-09-03T17:42:06.073Z,61.27
2018-09-03T17:45:11.052Z,61.50
2018-09-03T17:48:16.023Z,62.23
2018-09-03T17:51:21.005Z,62.25
2018-09-03T17:54:26.008Z,62.09
2018-09-03T17:57:31.081Z,63.38
2018-09-03T18:00:36.009Z,64.47
2018-09-03T18:03:40.974Z,64.91
2018-09-03T18:06:45.948Z,65.27
2018-09-03T18:09:50.860Z,65.59
2018-09-03T18:12:55.784Z,65.87
2018-09-03T18:16:00.782Z,65.50
2018-09-03T18:19:05.848Z,66.59
2018-09-03T18:22:10.801Z,66.05
2018-09-03T18:25:15.728Z,68.01
2018-09-03T18:28:20.729Z,67.25
2018-09-03T18:31:25.648Z,67.09
2018-09-03T18:34:30.720Z,67.02
2018-09-03T18:37:35.705Z,67.60
2018-09-03T18:40:40.650Z,66.62
2018-09-03T18:43:45.633Z,68.24
2018-09-03T18:46:50.695Z,69.14
2018-09-03T18:50:13.352Z,68.45
2018-09-03T18:53:19.195Z,69.67
2018-09-03T18:56:24.146Z,69.92
2018-09-03T18:59:29.118Z,69.25
2018-09-03T19:02:34.187Z,70.73
2018-09-03T19:05:39.161Z,70.25
2018-09-03T19:08:44.121Z,70.45
2018-09-03T19:11:49.102Z,69.74
2018-09-03T19:14:54.053Z,70.75
2018-09-03T19:17:59.024Z,70.60
2018-09-03T19:21:04.011Z,69.89
2018-09-03T19:24:09.149Z,69.97
2018-09-03T19:27:14.168Z,70.93
2018-09-03T19:30:19.181Z,70.17
2018-09-03T19:33:24.146Z,71.06
2018-09-03T19:36:29.125Z,70.86
2018-09-03T19:39:34.105Z,70.03
2018-09-03T19:42:39.117Z,70.21
2018-09-03T19:45:44.080Z,70.71
2018-09-03T19:48:49.102Z,71.13
2018-09-03T19:51:54.072Z,71.15
2018-09-03T19:54:58.997Z,70.92
2018-09-03T19:58:04.165Z,71.44
2018-09-03T20:01:09.136Z,71.33
2018-09-03T20:04:14.458Z,71.79
2018-09-03T20:07:19.535Z,71.03
2018-09-03T20:10:24.513Z,71.85
2018-09-03T20:13:29.529Z,71.53
2018-09-03T20:16:34.528Z,70.92
2018-09-03T20:19:39.481Z,71.98
2018-09-03T20:22:44.713Z,72.67
2018-09-03T20:25:49.909Z,72.90
2018-09-03T20:28:54.858Z,72.78
2018-09-03T20:32:00.021Z,73.04
2018-09-03T20:35:05.285Z,72.80
2018-09-03T20:38:10.674Z,73.33
2018-09-03T20:41:15.652Z,73.25
2018-09-03T20:44:20.614Z,73.42
2018-09-03T20:47:25.531Z,72.62
2018-09-03T20:50:30.497Z,72.82
2018-09-03T20:53:35.448Z,72.53
2018-09-03T20:56:40.492Z,73.48
2018-09-03T20:59:45.401Z,72.66
2018-09-03T21:02:50.312Z,73.19
2018-09-03T21:05:55.289Z,73.00
2018-09-03T21:09:00.196Z,73.43
2018-09-03T21:12:05.199Z,72.41
2018-09-03T21:15:10.122Z,73.06
2018-09-03T21:18:15.058Z,72.63
2018-09-03T21:21:19.996Z,74.37
2018-09-03T21:24:24.962Z,73.20
2018-09-03T21:27:29.880Z,73.28
2018-09-03T21:30:34.803Z,74.06
2018-09-03T21:33:39.741Z,74.67
2018-09-03T21:36:44.637Z,73.75
2018-09-03T21:39:49.572Z,73.65
2018-09-03T21:42:54.481Z,73.78
2018-09-03T21:45:59.429Z,74.52
2018-09-03T21:49:04.365Z,73.17
2018-09-03T21:52:09.321Z,74.15
2018-09-03T21:55:14.236Z,74.47
2018-09-03T22:02:11.836Z,73.58
2018-09-03T22:05:16.783Z,73.90
2018-09-03T22:08:21.751Z,73.96
2018-09-03T22:11:26.725Z,75.17
2018-09-03T22:14:31.699Z,75.69
2018-09-03T22:17:36.630Z,75.94
2018-09-03T22:20:41.600Z,74.58
2018-09-03T22:23:46.549Z,75.53
2018-09-03T22:26:51.649Z,75.71
2018-09-03T22:29:56.628Z,75.33
2018-09-03T22:33:01.588Z,74.53
2018-09-03T22:36:06.529Z,75.63
2018-09-03T22:39:11.797Z,74.94
2018-09-03T22:42:16.809Z,74.67
2018-09-03T22:45:21.757Z,74.63
2018-09-03T22:48:26.705Z,76.03
2018-09-03T22:51:31.662Z,76.27
2018-09-03T22:54:36.620Z,75.37
2018-09-03T22:57:41.553Z,76.72
2018-09-03T23:00:46.468Z,76.88
2018-09-03T23:03:51.420Z,76.01
2018-09-03T23:06:56.360Z,77.37
2018-09-03T23:10:01.383Z,77.53
2018-09-03T23:13:06.325Z,77.16
2018-09-03T23:16:11.262Z,77.94
2018-09-03T23:19:16.188Z,76.64
2018-09-03T23:22:21.127Z,76.34
2018-09-03T23:25:26.061Z,77.36
2018-09-03T23:28:31.005Z,77.24
2018-09-03T23:31:35.939Z,77.78
2018-09-03T23:34:40.962Z,77.85
2018-09-03T23:37:45.939Z,77.08
2018-09-03T23:40:50.893Z,76.96
2018-09-03T23:43:55.842Z,78.80
2018-09-03T23:47:00.776Z,78.32
2018-09-03T23:50:05.734Z,78.85
2018-09-03T23:53:10.773Z,78.38
2018-09-03T23:56:15.717Z,79.04
2018-09-03T23:59:20.725Z,78.79
